• Join FlightAware (Why Join?)
  • Login
  • US Flag 
08:52PM EDT


 

Airport Tracker/Info


-or-


 

Live Flight TrackerFlight Track Log ✈ AWI3778 ✈ 25-Jun-2013 ✈ KBTV - KPHL

Flight Track Log - Related Links

Times and Time Zones

All times are in EDT time to prevent confusion due to time zone crossing. See the AWI3778 flight status page for this flight to view local times or setup timezone preferences in your user account.

Time Position Orientation Groundspeed Altitude Reporting Facility
EDT Latitude Longitude Course Direction KTS MPH feet Rate Location/Type
02:24PM 44.1682 -73.2594 196° South  Level FlightAware Approximate
02:25PM 44.0690 -73.2990 196° South  Level FlightAware Approximate
02:25PM 44.2681 -73.0403 194° South 274 315 8,300  Level Boston Center
02:26PM 43.9699 -73.3388 196° South  Level FlightAware Approximate
02:26PM 44.2036 -72.9961 154° Southeast 267 307 10,000  Level Boston Center
02:27PM 43.8705 -73.3776 195° South  Level FlightAware Approximate
02:27PM 44.1269 -72.9519 158° South 282 325 11,600  Level Boston Center
02:28PM 43.7708 -73.4144 195° South  Level FlightAware Approximate
02:28PM 44.0519 -72.9339 170° South 287 330 13,400  Level Boston Center
02:29PM 43.6711 -73.4511 195° South  Level FlightAware Approximate
02:29PM 44.0097 -73.0203 236° Southwest 259 298 14,600  Level Boston Center
02:30PM 43.5793 -73.4847 194° South  Level FlightAware Approximate
02:30PM 43.9675 -73.1181 239° Southwest 285 328 16,200  Level Boston Center
02:31PM 43.9233 -73.2156 238° Southwest 305 351 17,600 1,080 Climbing Boston Center
02:32PM 43.8767 -73.3156 237° Southwest 311 358 18,400 360 Climbing Boston Center
02:33PM 43.8133 -73.4183 230° Southwest 339 390 18,400 300 Level Boston Center
02:34PM 43.7108 -73.4597 196° South 365 420 19,100 1,080 Climbing Boston Center
02:35PM 43.6000 -73.4981 194° South 381 438 20,600 1,500 Climbing Boston Center
02:36PM 43.5161 -73.5653 210° Southwest 373 429 22,100 1,500 Climbing Boston Center
02:37PM 43.4422 -73.6439 218° Southwest 351 404 23,600 1,080 Climbing Boston Center
02:38PM 43.3706 -73.7225 219° Southwest 341 392 24,300 780 Climbing Boston Center
02:39PM 43.3031 -73.7925 217° Southwest 341 392 25,200 900 Climbing Boston Center
02:40PM 43.2333 -73.8678 218° Southwest 336 387 26,100 720 Climbing Boston Center
02:41PM 43.1575 -73.9458 217° Southwest 336 387 26,700 420 Climbing Boston Center
02:42PM 43.0875 -74.0322 222° Southwest 336 387 27,000 120 Climbing Boston Center
02:43PM 43.0153 -74.1269 224° Southwest 343 395 27,000  Level Boston Center
02:44PM 42.9428 -74.2242 224° Southwest 362 417 27,000  Level Boston Center
02:45PM 42.8661 -74.3294 225° Southwest 374 430 27,000 -60 Level Boston Center
02:46PM 42.7872 -74.4317 224° Southwest 391 450 26,900 -60 Descending Boston Center
02:47PM 42.6981 -74.5222 217° Southwest 398 458 26,900  Level Boston Center
02:48PM 42.6008 -74.6036 212° Southwest 409 471 27,000  Climbing Boston Center
02:49PM 42.5033 -74.6847 212° Southwest 414 476 27,000  Level Boston Center
02:50PM 42.4056 -74.7683 212° Southwest 420 483 27,000 -1,020 Level Boston Center
02:52PM 42.1828 -74.9519 211° Southwest 441 507 23,800 -1,860 Descending New York Center
02:53PM 42.0669 -75.0508 212° Southwest 452 520 21,200 -2,400 Descending New York Center
02:54PM 41.9642 -75.1278 209° Southwest 440 506 19,000 -1,140 Descending New York Center
02:55PM 41.8619 -75.1906 205° Southwest 425 489 19,000 -660 Level New York Center
02:56PM 41.7681 -75.2483 205° Southwest 411 473 17,800 -1,440 Descending New York Center
02:57PM 41.6572 -75.3158 204° Southwest 411 473 16,100 -1,620 Descending New York Center
02:58PM 41.5594 -75.3731 204° Southwest 399 459 14,600 -1,440 Descending New York Center
02:59PM 41.4633 -75.4328 205° Southwest 382 440 13,200 -1,320 Descending New York Center
03:00PM 41.3936 -75.5108 220° Southwest 371 427 12,000 -660 Descending New York Center
03:01PM 41.3314 -75.6033 228° Southwest 359 413 12,000  Level New York Center
03:02PM 41.2614 -75.6867 222° Southwest 345 397 12,000  Level New York Center
03:03PM 41.1539 -75.7172 192° South 350 403 12,000 -420 Level New York Center
03:04PM 41.0550 -75.7403 190° South 361 415 11,200 -960 Descending New York Center
03:05PM 40.9681 -75.7286 174° South 355 409 10,200 -660 Descending New York Center
03:06PM 40.8600 -75.7181 176° South 348 400 10,000 -120 Descending New York Center
03:07PM 40.7608 -75.7025 173° South 362 417 10,000  Level New York Center
03:08PM 40.6678 -75.6303 150° Southeast 367 422 10,000  Level New York Center
03:09PM 40.5775 -75.5444 144° Southeast 394 453 10,000 -180 Level New York Center
03:10PM 40.4931 -75.4731 147° Southeast 384 442 9,700 -540 Descending New York Center
03:11PM 40.4131 -75.4406 163° South 329 379 9,000 -360 Descending New York Center
03:12PM 40.3308 -75.4078 163° South 314 361 9,000 -480 Level New York Center
03:13PM 40.2603 -75.4031 177° South 300 345 8,100 -1,020 Descending New York Center
03:14PM 40.1750 -75.3944 176° South 285 328 7,000 -1,020 Descending New York Center
03:15PM 40.1278 -75.3236 131° Southeast 265 305 6,100 -540 Descending New York Center
03:16PM 40.1000 -75.2333 112° Southeast 282 325 6,000 -60 Descending Philadelphia TRACON
03:17PM 40.0667 -75.1333 114° Southeast 266 306 6,000  Level Philadelphia TRACON
03:18PM 40.0333 -75.0667 123° Southeast 213 245 6,000  Level Philadelphia TRACON